createdAt,value
2018-08-20T00:00:57.072Z,79.62
2018-08-20T00:01:57.076Z,80.00
2018-08-20T00:02:57.073Z,80.00
2018-08-20T00:03:57.072Z,79.62
2018-08-20T00:04:57.072Z,80.00
2018-08-20T00:05:57.064Z,79.81
2018-08-20T00:06:57.117Z,79.91
2018-08-20T00:07:57.067Z,79.72
2018-08-20T00:08:57.067Z,79.72
2018-08-20T00:09:57.066Z,79.81
2018-08-20T00:10:57.058Z,80.00
2018-08-20T00:11:57.060Z,79.33
2018-08-20T00:12:57.057Z,79.33
2018-08-20T00:13:57.060Z,79.14
2018-08-20T00:14:57.059Z,78.85
2018-08-20T00:15:57.053Z,78.85
2018-08-20T00:16:57.056Z,78.94
2018-08-20T00:17:57.048Z,78.85
2018-08-20T00:18:57.049Z,79.04
2018-08-20T00:19:57.047Z,78.46
2018-08-20T00:20:57.050Z,78.17
2018-08-20T00:21:57.047Z,78.75
2018-08-20T00:22:57.048Z,77.98
2018-08-20T00:23:57.048Z,78.27
2018-08-20T00:24:57.045Z,77.78
2018-08-20T00:25:57.045Z,77.88
2018-08-20T00:26:57.046Z,77.69
2018-08-20T00:27:57.038Z,77.98
2018-08-20T00:28:57.033Z,78.17
2018-08-20T00:29:57.036Z,78.08
2018-08-20T00:30:57.030Z,77.98
2018-08-20T00:31:57.027Z,78.27
2018-08-20T00:32:57.029Z,78.27
2018-08-20T00:33:57.032Z,78.66
2018-08-20T00:34:57.026Z,79.52
2018-08-20T00:35:57.033Z,78.56
2018-08-20T00:36:57.023Z,79.24
2018-08-20T00:37:57.018Z,77.88
2018-08-20T00:38:57.019Z,78.23
2018-08-20T00:39:57.024Z,77.36
2018-08-20T00:40:57.015Z,77.07
2018-08-20T00:41:57.017Z,77.26
2018-08-20T00:42:57.013Z,77.55
2018-08-20T00:43:57.009Z,76.78
2018-08-20T00:44:57.018Z,76.98
2018-08-20T00:45:57.008Z,77.84
2018-08-20T00:46:57.005Z,77.84
2018-08-20T00:47:57.003Z,78.71
2018-08-20T00:48:57.000Z,78.42
2018-08-20T00:49:57.005Z,78.42
2018-08-20T00:50:57.003Z,78.71
2018-08-20T00:51:56.995Z,78.42
2018-08-20T00:52:57.000Z,77.75
2018-08-20T00:53:56.991Z,77.17
2018-08-20T00:54:56.992Z,76.40
2018-08-20T00:55:57.001Z,76.98
2018-08-20T00:56:56.987Z,77.36
2018-08-20T00:57:56.982Z,77.65
2018-08-20T00:58:56.990Z,77.65
2018-08-20T00:59:56.983Z,77.26
2018-08-20T01:00:56.980Z,77.75
2018-08-20T01:01:56.979Z,77.94
2018-08-20T01:02:56.979Z,77.65
2018-08-20T01:03:56.972Z,77.07
2018-08-20T01:04:56.970Z,75.92
2018-08-20T01:05:56.973Z,75.72
2018-08-20T01:06:56.972Z,75.82
2018-08-20T01:07:56.988Z,75.68
2018-08-20T01:08:56.969Z,75.24
2018-08-20T01:09:56.964Z,76.68
2018-08-20T01:10:56.964Z,76.65
2018-08-20T01:11:57.030Z,76.50
2018-08-20T01:12:56.966Z,77.13
2018-08-20T01:13:56.957Z,77.13
2018-08-20T01:14:56.960Z,76.93
2018-08-20T01:15:56.954Z,78.09
2018-08-20T01:16:56.948Z,78.19
2018-08-20T01:17:56.947Z,78.19
2018-08-20T01:18:56.951Z,78.86
2018-08-20T01:19:56.945Z,78.96
2018-08-20T01:20:56.947Z,78.48
2018-08-20T01:21:56.988Z,77.81
2018-08-20T01:22:56.936Z,78.19
2018-08-20T01:23:56.934Z,79.35
2018-08-20T01:24:56.933Z,79.06
2018-08-20T01:25:56.930Z,79.64
2018-08-20T01:26:56.931Z,79.64
2018-08-20T01:27:56.929Z,79.93
2018-08-20T01:28:56.926Z,79.54
2018-08-20T01:29:56.924Z,79.74
2018-08-20T01:30:56.924Z,79.83
2018-08-20T01:31:56.923Z,80.22
2018-08-20T01:32:56.925Z,79.25
2018-08-20T01:33:56.916Z,79.16
2018-08-20T01:34:56.912Z,77.61
2018-08-20T01:35:56.910Z,78.00
2018-08-20T01:36:56.909Z,78.38
2018-08-20T01:37:56.911Z,78.38
2018-08-20T01:38:56.933Z,78.54
2018-08-20T01:39:56.899Z,78.63
2018-08-20T01:40:56.900Z,79.50
2018-08-20T01:41:56.902Z,80.22
2018-08-20T01:42:56.964Z,78.67
2018-08-20T01:43:56.890Z,78.73
2018-08-20T01:44:56.952Z,78.54
2018-08-20T01:45:56.893Z,80.56
2018-08-20T01:46:56.890Z,80.85
2018-08-20T01:47:56.888Z,80.66
2018-08-20T01:48:56.882Z,80.18
2018-08-20T01:49:56.876Z,80.18
2018-08-20T01:50:56.886Z,80.27
2018-08-20T01:51:56.872Z,81.33
2018-08-20T01:52:56.876Z,81.33
2018-08-20T01:53:56.868Z,80.85
2018-08-20T01:54:56.922Z,80.94
2018-08-20T01:55:56.864Z,81.33
2018-08-20T01:56:56.862Z,81.52
2018-08-20T01:57:56.858Z,81.43
2018-08-20T01:58:56.858Z,80.46
2018-08-20T01:59:56.857Z,80.56
2018-08-20T02:00:56.860Z,80.08
2018-08-20T02:01:56.854Z,79.50
2018-08-20T02:02:56.854Z,79.69
2018-08-20T02:03:56.843Z,79.21
2018-08-20T02:04:56.889Z,79.02
2018-08-20T02:05:56.840Z,78.83
2018-08-20T02:06:56.838Z,79.11
2018-08-20T02:07:56.839Z,79.31
2018-08-20T02:08:56.838Z,79.11
2018-08-20T02:09:56.828Z,79.31
2018-08-20T02:10:56.828Z,79.02
2018-08-20T02:11:56.871Z,79.21
2018-08-20T02:12:56.820Z,79.50
2018-08-20T02:13:56.819Z,79.31
2018-08-20T02:14:56.823Z,79.69
2018-08-20T02:15:56.817Z,80.08
2018-08-20T02:16:56.816Z,80.46
2018-08-20T02:17:56.809Z,80.18
2018-08-20T02:18:56.806Z,81.04
2018-08-20T02:19:56.807Z,80.66
2018-08-20T02:20:56.805Z,80.66
2018-08-20T02:21:56.800Z,80.79
2018-08-20T02:22:56.796Z,80.66
2018-08-20T02:23:56.798Z,80.22
2018-08-20T02:24:56.790Z,79.44
2018-08-20T02:25:56.800Z,79.64
2018-08-20T02:26:56.787Z,79.41
2018-08-20T02:27:56.847Z,79.35
2018-08-20T02:28:56.781Z,79.11
2018-08-20T02:29:56.783Z,79.60
2018-08-20T02:30:56.781Z,80.08
2018-08-20T02:31:56.775Z,79.79
2018-08-20T02:32:56.774Z,79.21
2018-08-20T02:33:56.769Z,79.79
2018-08-20T02:34:56.768Z,79.98
2018-08-20T02:35:56.766Z,80.46
2018-08-20T02:36:56.769Z,80.66
2018-08-20T02:37:56.812Z,80.56
2018-08-20T02:38:56.757Z,79.27
2018-08-20T02:39:56.761Z,79.41
2018-08-20T02:40:56.751Z,79.94
2018-08-20T02:41:56.749Z,80.56
2018-08-20T02:42:56.752Z,80.46
2018-08-20T02:43:56.746Z,79.89
2018-08-20T02:44:56.748Z,80.66
2018-08-20T02:45:56.745Z,80.23
2018-08-20T02:46:56.736Z,80.91
2018-08-20T02:47:56.785Z,80.91
2018-08-20T02:48:56.740Z,81.68
2018-08-20T02:49:56.727Z,81.29
2018-08-20T02:50:56.729Z,80.52
2018-08-20T02:51:56.728Z,80.62
2018-08-20T02:52:56.721Z,80.76
2018-08-20T02:53:56.721Z,80.71
2018-08-20T02:54:56.720Z,81.01
2018-08-20T02:55:56.712Z,81.01
2018-08-20T02:56:56.716Z,81.20
2018-08-20T02:57:56.752Z,81.58
2018-08-20T02:58:56.706Z,81.48
2018-08-20T02:59:56.709Z,82.45
2018-08-20T03:00:56.705Z,81.87
2018-08-20T03:01:56.701Z,82.16
2018-08-20T03:02:56.695Z,80.23
2018-08-20T03:03:56.699Z,80.14
2018-08-20T03:04:56.690Z,80.91
2018-08-20T03:05:56.709Z,82.06
2018-08-20T03:06:56.688Z,81.48
2018-08-20T03:07:56.685Z,81.58
2018-08-20T03:08:56.683Z,81.20
2018-08-20T03:09:56.680Z,81.68
2018-08-20T03:10:56.682Z,81.10
2018-08-20T03:11:56.674Z,81.48
2018-08-20T03:12:56.671Z,81.48
2018-08-20T03:13:56.665Z,81.87
2018-08-20T03:14:56.662Z,82.54
2018-08-20T03:15:56.658Z,83.31
2018-08-20T03:16:56.660Z,83.12
2018-08-20T03:17:56.659Z,82.83
2018-08-20T03:18:56.658Z,83.61
2018-08-20T03:19:56.650Z,83.61
2018-08-20T03:20:56.654Z,83.80
2018-08-20T03:21:56.649Z,84.28
2018-08-20T03:22:56.643Z,83.80
2018-08-20T03:23:56.638Z,84.76
2018-08-20T03:24:56.640Z,84.81
2018-08-20T03:25:56.636Z,85.24
2018-08-20T03:26:56.641Z,84.47
2018-08-20T03:27:56.633Z,84.47
2018-08-20T03:28:56.630Z,83.89
2018-08-20T03:29:56.621Z,83.80
2018-08-20T03:30:56.619Z,83.89
2018-08-20T03:31:56.617Z,83.89
2018-08-20T03:32:56.613Z,83.31
2018-08-20T03:33:56.619Z,83.12
2018-08-20T03:34:56.606Z,83.12
2018-08-20T03:35:56.612Z,82.83
2018-08-20T03:36:56.607Z,82.74
2018-08-20T03:37:56.599Z,82.54
2018-08-20T03:38:56.622Z,83.03
2018-08-20T03:39:56.598Z,82.54
2018-08-20T03:40:56.590Z,82.93
2018-08-20T03:41:56.587Z,81.39
2018-08-20T03:42:56.586Z,81.87
2018-08-20T03:43:56.589Z,82.64
2018-08-20T03:44:56.584Z,82.26
2018-08-20T03:45:56.581Z,83.41
2018-08-20T03:46:56.575Z,82.74
2018-08-20T03:47:56.572Z,83.12
2018-08-20T03:48:56.569Z,83.31
2018-08-20T03:49:56.572Z,83.22
2018-08-20T03:50:56.617Z,83.70
2018-08-20T03:51:56.561Z,83.12
2018-08-20T03:52:56.563Z,82.64
2018-08-20T03:53:56.558Z,82.06
2018-08-20T03:54:56.555Z,82.26
2018-08-20T03:55:56.555Z,82.06
2018-08-20T03:56:56.545Z,81.39
2018-08-20T03:57:56.542Z,81.48
2018-08-20T03:58:56.540Z,81.39
2018-08-20T03:59:56.540Z,81.20
2018-08-20T04:00:56.588Z,81.39
2018-08-20T04:01:56.537Z,81.87
2018-08-20T04:02:56.535Z,81.87
2018-08-20T04:03:56.529Z,81.77
2018-08-20T04:04:56.558Z,82.93
2018-08-20T04:05:56.522Z,83.22
2018-08-20T04:06:56.518Z,82.93
2018-08-20T04:07:56.563Z,82.64
2018-08-20T04:08:56.516Z,82.93
2018-08-20T04:09:56.507Z,82.93
2018-08-20T04:10:56.550Z,83.70
2018-08-20T04:11:56.503Z,83.89
2018-08-20T04:12:56.503Z,83.80
2018-08-20T04:13:56.499Z,83.31
2018-08-20T04:14:56.496Z,83.31
2018-08-20T04:15:56.492Z,83.22
2018-08-20T04:16:56.488Z,83.61
2018-08-20T04:17:56.484Z,83.99
2018-08-20T04:18:56.488Z,83.51
2018-08-20T04:19:56.478Z,83.12
2018-08-20T04:20:56.479Z,83.41
2018-08-20T04:21:56.476Z,82.64
2018-08-20T04:22:56.486Z,83.12
2018-08-20T04:23:56.468Z,83.12
2018-08-20T04:24:56.463Z,82.93
2018-08-20T04:25:56.470Z,82.93
2018-08-20T04:26:56.457Z,83.31
2018-08-20T04:27:56.463Z,83.70
2018-08-20T04:28:56.460Z,83.99
2018-08-20T04:29:56.446Z,83.31
2018-08-20T04:30:56.448Z,83.70
2018-08-20T04:31:56.443Z,84.18
2018-08-20T04:32:56.445Z,84.38
2018-08-20T04:33:56.437Z,84.38
2018-08-20T04:34:56.438Z,84.72
2018-08-20T04:35:56.433Z,85.20
2018-08-20T04:36:56.447Z,85.14
2018-08-20T04:37:56.426Z,85.34
2018-08-20T04:38:56.426Z,84.72
2018-08-20T04:39:56.418Z,85.05
2018-08-20T04:40:56.414Z,85.58
2018-08-20T04:41:56.419Z,84.81
2018-08-20T04:42:56.408Z,85.20
2018-08-20T04:43:56.409Z,85.00
2018-08-20T04:44:56.402Z,85.39
2018-08-20T04:45:56.400Z,85.30
2018-08-20T04:46:56.403Z,85.39
2018-08-20T04:47:56.398Z,85.68
2018-08-20T04:48:56.395Z,85.68
2018-08-20T04:49:56.480Z,85.49
2018-08-20T04:50:56.404Z,85.87
2018-08-20T04:51:56.383Z,86.35
2018-08-20T04:52:56.381Z,86.45
2018-08-20T04:53:56.383Z,86.45
2018-08-20T04:54:56.371Z,86.55
2018-08-20T04:55:56.374Z,86.65
2018-08-20T04:56:56.367Z,86.93
2018-08-20T04:57:56.365Z,86.26
2018-08-20T04:58:56.360Z,85.97
2018-08-20T04:59:56.358Z,86.07
2018-08-20T05:00:56.358Z,86.16
2018-08-20T05:01:56.356Z,86.26
2018-08-20T05:02:56.350Z,85.58
2018-08-20T05:03:56.351Z,85.82
2018-08-20T05:04:56.340Z,86.30
2018-08-20T05:05:56.338Z,86.21
2018-08-20T05:06:56.337Z,86.21
2018-08-20T05:07:56.335Z,85.72
2018-08-20T05:08:56.328Z,85.82
2018-08-20T05:09:56.365Z,85.72
2018-08-20T05:10:56.322Z,84.95
2018-08-20T05:11:56.321Z,84.95
2018-08-20T05:12:56.317Z,85.72
2018-08-20T05:13:56.313Z,85.53
2018-08-20T05:14:56.311Z,85.53
2018-08-20T05:15:56.336Z,85.72
2018-08-20T05:16:56.304Z,86.59
2018-08-20T05:17:56.307Z,86.88
2018-08-20T05:18:56.353Z,87.55
2018-08-20T05:19:56.302Z,86.88
2018-08-20T05:20:56.294Z,86.98
2018-08-20T05:21:56.296Z,86.78
2018-08-20T05:22:56.288Z,86.30
2018-08-20T05:23:56.286Z,85.43
2018-08-20T05:24:56.286Z,85.19
2018-08-20T05:25:56.288Z,84.99
2018-08-20T05:26:56.280Z,83.94
2018-08-20T05:27:56.272Z,83.07
2018-08-20T05:28:56.275Z,82.49
2018-08-20T05:29:56.271Z,82.72
2018-08-20T05:30:56.305Z,82.92
2018-08-20T05:31:56.261Z,82.43
2018-08-20T05:32:56.266Z,82.53
2018-08-20T05:33:56.257Z,81.57
2018-08-20T05:34:56.260Z,81.47
2018-08-20T05:35:56.252Z,81.37
2018-08-20T05:36:56.249Z,81.27
2018-08-20T05:37:56.250Z,81.47
2018-08-20T05:38:56.245Z,80.93
2018-08-20T05:39:56.244Z,81.02
2018-08-20T05:40:56.244Z,80.06
2018-08-20T05:41:56.241Z,80.64
2018-08-20T05:42:56.237Z,78.13
2018-08-20T05:43:56.234Z,78.23
2018-08-20T05:44:56.274Z,78.61
2018-08-20T05:45:56.228Z,79.25
2018-08-20T05:46:56.223Z,79.54
2018-08-20T05:47:56.227Z,79.10
2018-08-20T05:48:56.223Z,79.00
2018-08-20T05:49:56.222Z,79.39
2018-08-20T05:50:56.218Z,78.42
2018-08-20T05:51:56.215Z,77.84
2018-08-20T05:52:56.216Z,77.26
2018-08-20T05:53:56.212Z,77.75
2018-08-20T05:54:56.211Z,78.03
2018-08-20T05:55:56.209Z,78.36
2018-08-20T05:56:56.206Z,77.88
2018-08-20T05:57:56.203Z,76.82
2018-08-20T05:58:56.205Z,76.43
2018-08-20T05:59:56.198Z,76.30
2018-08-20T06:00:56.193Z,77.36
2018-08-20T06:01:56.191Z,76.92
2018-08-20T06:02:56.189Z,76.53
2018-08-20T06:03:56.188Z,75.95
2018-08-20T06:04:56.185Z,75.57
2018-08-20T06:05:56.189Z,75.85
2018-08-20T06:06:56.181Z,75.27
2018-08-20T06:07:56.238Z,74.51
2018-08-20T06:08:56.175Z,74.73
2018-08-20T06:09:56.180Z,74.25
2018-08-20T06:10:56.178Z,73.86
2018-08-20T06:11:56.175Z,73.19
2018-08-20T06:12:56.170Z,72.74
2018-08-20T06:13:56.272Z,73.22
2018-08-20T06:14:56.174Z,73.03
2018-08-20T06:15:56.171Z,72.55
2018-08-20T06:16:56.163Z,72.36
2018-08-20T06:17:56.167Z,71.20
2018-08-20T06:18:56.160Z,71.78
2018-08-20T06:19:56.167Z,70.52
2018-08-20T06:20:56.162Z,70.32
2018-08-20T06:21:56.155Z,71.10
2018-08-20T06:22:56.161Z,69.84
2018-08-20T06:23:56.154Z,69.59
2018-08-20T06:24:56.166Z,68.62
2018-08-20T06:25:56.151Z,69.40
2018-08-20T06:26:56.154Z,69.78
2018-08-20T06:27:56.156Z,69.59
2018-08-20T06:28:56.149Z,69.20
2018-08-20T06:29:56.147Z,68.91
2018-08-20T06:30:56.145Z,68.56
2018-08-20T06:31:56.145Z,68.56
2018-08-20T06:32:56.154Z,69.33
2018-08-20T06:33:56.144Z,69.04
2018-08-20T06:34:56.144Z,69.14
2018-08-20T06:35:56.144Z,67.91
2018-08-20T06:36:56.142Z,67.91
2018-08-20T06:37:56.139Z,67.72
2018-08-20T06:38:56.138Z,67.91
2018-08-20T06:39:56.139Z,67.24
2018-08-20T06:40:56.136Z,67.24
2018-08-20T06:41:56.139Z,66.56
2018-08-20T06:42:56.140Z,66.27
2018-08-20T06:43:56.135Z,66.20
2018-08-20T06:44:56.138Z,66.50
2018-08-20T06:45:56.140Z,64.75
2018-08-20T06:46:56.134Z,64.37
2018-08-20T06:47:56.137Z,63.98
2018-08-20T06:48:56.133Z,63.79
2018-08-20T06:49:56.130Z,63.59
2018-08-20T06:50:56.136Z,63.92
2018-08-20T06:51:56.133Z,63.62
2018-08-20T06:52:56.162Z,64.01
2018-08-20T06:53:56.131Z,63.92
2018-08-20T06:54:56.130Z,64.20
2018-08-20T06:55:56.132Z,64.30
2018-08-20T06:56:56.131Z,64.20
2018-08-20T06:57:56.126Z,63.04
2018-08-20T06:58:56.130Z,63.62
2018-08-20T06:59:56.130Z,63.43
2018-08-20T07:00:56.140Z,63.24
2018-08-20T07:01:56.140Z,63.24
2018-08-20T07:02:56.126Z,63.14
2018-08-20T07:03:56.147Z,63.14
2018-08-20T07:04:56.126Z,63.24
2018-08-20T07:05:56.132Z,62.98
2018-08-20T07:06:56.128Z,63.56
2018-08-20T07:07:56.129Z,63.85
2018-08-20T07:08:56.126Z,63.17
2018-08-20T07:09:56.127Z,63.62
2018-08-20T07:10:56.129Z,63.56
2018-08-20T07:11:56.181Z,62.37
2018-08-20T07:12:56.132Z,63.34
2018-08-20T07:13:56.126Z,63.27
2018-08-20T07:14:56.125Z,62.98
2018-08-20T07:15:56.125Z,62.30
2018-08-20T07:16:56.130Z,61.91
2018-08-20T07:17:56.133Z,61.91
2018-08-20T07:18:56.126Z,62.01
2018-08-20T07:19:56.129Z,60.78
2018-08-20T07:20:56.133Z,60.78
2018-08-20T07:21:56.129Z,60.30
2018-08-20T07:22:56.175Z,59.81
2018-08-20T07:23:56.212Z,60.10
2018-08-20T07:24:56.132Z,60.39
2018-08-20T07:25:56.133Z,60.78
2018-08-20T07:26:56.130Z,60.58
2018-08-20T07:27:56.136Z,60.88
2018-08-20T07:28:56.127Z,60.88
2018-08-20T07:29:56.134Z,60.39
2018-08-20T07:30:56.148Z,60.13
2018-08-20T07:31:56.132Z,60.42
2018-08-20T07:32:56.174Z,60.58
2018-08-20T07:33:56.135Z,59.74
2018-08-20T07:34:56.136Z,60.13
2018-08-20T07:35:56.135Z,59.36
2018-08-20T07:36:56.140Z,59.64
2018-08-20T07:37:56.138Z,59.64
2018-08-20T07:38:56.138Z,59.94
2018-08-20T07:39:56.136Z,59.36
2018-08-20T07:40:56.138Z,59.48
2018-08-20T07:41:56.142Z,59.48
2018-08-20T07:42:56.135Z,59.87
2018-08-20T07:43:56.138Z,59.97
2018-08-20T07:44:56.137Z,58.70
2018-08-20T07:45:56.141Z,57.83
2018-08-20T07:46:56.144Z,56.96
2018-08-20T07:47:56.144Z,56.79
2018-08-20T07:48:56.147Z,56.89
2018-08-20T07:49:56.148Z,57.18
2018-08-20T07:50:56.230Z,56.60
2018-08-20T07:51:56.143Z,56.21
2018-08-20T07:52:56.171Z,56.14
2018-08-20T07:53:56.150Z,55.65
2018-08-20T07:54:56.152Z,55.85
2018-08-20T07:55:56.147Z,55.75
2018-08-20T07:56:56.160Z,55.94
2018-08-20T07:57:56.152Z,54.88
2018-08-20T07:58:56.157Z,55.65
2018-08-20T07:59:56.160Z,55.17
2018-08-20T08:00:56.153Z,54.78
2018-08-20T08:01:56.165Z,54.78
2018-08-20T08:02:56.161Z,54.97
2018-08-20T08:03:56.163Z,55.55
2018-08-20T08:04:56.157Z,54.49
2018-08-20T08:05:56.160Z,54.75
2018-08-20T08:06:56.162Z,54.88
2018-08-20T08:07:56.163Z,54.68
2018-08-20T08:08:56.162Z,53.93
2018-08-20T08:09:56.165Z,53.93
2018-08-20T08:10:56.164Z,53.83
2018-08-20T08:11:56.177Z,53.83
2018-08-20T08:12:56.171Z,53.16
2018-08-20T08:13:56.181Z,53.45
2018-08-20T08:14:56.170Z,53.74
2018-08-20T08:15:56.171Z,54.03
2018-08-20T08:16:56.175Z,53.25
2018-08-20T08:17:56.179Z,52.57
2018-08-20T08:18:56.184Z,53.54
2018-08-20T08:19:56.178Z,54.03
2018-08-20T08:20:56.179Z,53.93
2018-08-20T08:21:56.185Z,53.22
2018-08-20T08:22:56.180Z,53.22
2018-08-20T08:23:56.189Z,53.13
2018-08-20T08:24:56.288Z,53.03
2018-08-20T08:25:56.192Z,53.13
2018-08-20T08:26:56.187Z,53.35
2018-08-20T08:27:56.189Z,53.13
2018-08-20T08:28:56.188Z,54.39
2018-08-20T08:29:56.193Z,53.35
2018-08-20T08:30:56.191Z,52.45
2018-08-20T08:31:56.202Z,53.22
2018-08-20T08:32:56.194Z,54.29
2018-08-20T08:33:56.197Z,53.32
2018-08-20T08:34:56.202Z,53.42
2018-08-20T08:35:56.199Z,51.79
2018-08-20T08:36:56.201Z,51.70
2018-08-20T08:37:56.237Z,51.11
2018-08-20T08:38:56.206Z,51.31
2018-08-20T08:39:56.205Z,51.43
2018-08-20T08:40:56.213Z,51.04
2018-08-20T08:41:56.234Z,50.75
2018-08-20T08:42:56.210Z,50.68
2018-08-20T08:43:56.212Z,50.09
2018-08-20T08:44:56.214Z,51.04
2018-08-20T08:45:56.218Z,50.87
2018-08-20T08:46:56.222Z,49.51
2018-08-20T08:47:56.222Z,49.61
2018-08-20T08:48:56.219Z,49.12
2018-08-20T08:49:56.242Z,49.02
2018-08-20T08:50:56.223Z,49.61
2018-08-20T08:51:56.229Z,50.29
2018-08-20T08:52:56.229Z,50.48
2018-08-20T08:53:56.229Z,50.19
2018-08-20T08:54:56.234Z,50.09
2018-08-20T08:55:56.233Z,50.09
2018-08-20T08:56:56.240Z,50.48
2018-08-20T08:57:56.236Z,49.80
2018-08-20T08:58:56.241Z,49.71
2018-08-20T08:59:56.244Z,49.41
2018-08-20T09:00:56.246Z,48.66
2018-08-20T09:01:56.245Z,49.05
2018-08-20T09:02:56.246Z,48.56
2018-08-20T09:03:56.254Z,47.78
2018-08-20T09:04:56.250Z,47.69
2018-08-20T09:05:56.322Z,47.61
2018-08-20T09:06:56.260Z,47.22
2018-08-20T09:07:56.326Z,47.03
2018-08-20T09:08:56.258Z,47.49
2018-08-20T09:09:56.415Z,47.78
2018-08-20T09:10:56.268Z,48.75
2018-08-20T09:11:56.264Z,50.68
2018-08-20T09:12:56.268Z,50.29
2018-08-20T09:13:56.268Z,50.38
2018-08-20T09:14:56.272Z,49.22
2018-08-20T09:15:56.280Z,48.93
2018-08-20T09:16:56.281Z,50.19
2018-08-20T09:17:56.278Z,50.78
2018-08-20T09:18:56.281Z,49.51
2018-08-20T09:19:56.285Z,48.83
2018-08-20T09:20:56.289Z,48.75
2018-08-20T09:21:56.287Z,48.36
2018-08-20T09:22:56.288Z,48.85
2018-08-20T09:23:56.290Z,48.78
2018-08-20T09:24:56.292Z,48.68
2018-08-20T09:25:56.297Z,47.80
2018-08-20T09:26:56.297Z,47.63
2018-08-20T09:27:56.306Z,46.86
2018-08-20T09:28:56.300Z,46.95
2018-08-20T09:29:56.303Z,47.63
2018-08-20T09:30:56.311Z,47.56
2018-08-20T09:31:56.313Z,47.56
2018-08-20T09:32:56.311Z,46.97
2018-08-20T09:33:56.319Z,46.20
2018-08-20T09:34:56.326Z,46.88
2018-08-20T09:35:56.320Z,46.88
2018-08-20T09:36:56.322Z,45.51
2018-08-20T09:37:56.322Z,45.32
2018-08-20T09:38:56.330Z,45.54
2018-08-20T09:39:56.335Z,45.25
2018-08-20T09:40:56.338Z,45.92
2018-08-20T09:41:56.335Z,45.42
2018-08-20T09:42:56.342Z,45.73
2018-08-20T09:43:56.406Z,45.64
2018-08-20T09:44:56.349Z,45.25
2018-08-20T09:45:56.354Z,45.73
2018-08-20T09:46:56.348Z,46.22
2018-08-20T09:47:56.358Z,46.10
2018-08-20T09:48:56.355Z,46.12
2018-08-20T09:49:56.360Z,45.44
2018-08-20T09:50:56.359Z,46.22
2018-08-20T09:51:56.367Z,45.51
2018-08-20T09:52:56.367Z,44.54
2018-08-20T09:53:56.367Z,45.32
2018-08-20T09:54:56.371Z,46.00
2018-08-20T09:55:56.376Z,46.00
2018-08-20T09:56:56.376Z,46.47
2018-08-20T09:57:56.384Z,46.37
2018-08-20T09:58:56.398Z,46.86
2018-08-20T09:59:56.385Z,46.95
2018-08-20T10:00:56.387Z,46.37
2018-08-20T10:01:56.393Z,46.30
2018-08-20T10:02:56.392Z,45.81
2018-08-20T10:03:56.395Z,46.10
2018-08-20T10:04:56.403Z,45.51
2018-08-20T10:05:56.408Z,45.71
2018-08-20T10:06:56.404Z,45.42
2018-08-20T10:07:56.415Z,46.20
2018-08-20T10:08:56.409Z,46.69
2018-08-20T10:09:56.414Z,46.39
2018-08-20T10:10:56.425Z,46.10
2018-08-20T10:11:56.426Z,45.54
2018-08-20T10:12:56.422Z,44.66
2018-08-20T10:13:56.429Z,44.85
2018-08-20T10:14:56.429Z,44.27
2018-08-20T10:15:56.431Z,44.07
2018-08-20T10:16:56.436Z,44.07
2018-08-20T10:17:56.443Z,43.68
2018-08-20T10:18:56.441Z,44.78
2018-08-20T10:19:56.459Z,43.80
2018-08-20T10:20:56.453Z,44.19
2018-08-20T10:21:56.456Z,44.58
2018-08-20T10:22:56.456Z,44.58
2018-08-20T10:23:56.456Z,43.71
2018-08-20T10:24:56.464Z,43.80
2018-08-20T10:25:56.465Z,44.37
2018-08-20T10:26:56.469Z,44.56
2018-08-20T10:27:56.468Z,44.37
2018-08-20T10:28:56.471Z,45.05
2018-08-20T10:29:56.472Z,45.07
2018-08-20T10:30:56.482Z,44.29
2018-08-20T10:31:56.549Z,44.68
2018-08-20T10:32:56.480Z,43.80
2018-08-20T10:33:56.487Z,44.09
2018-08-20T10:34:56.491Z,44.31
2018-08-20T10:35:56.491Z,43.73
2018-08-20T10:36:56.497Z,43.33
2018-08-20T10:37:56.595Z,43.85
2018-08-20T10:38:56.511Z,43.04
2018-08-20T10:39:56.507Z,41.70
2018-08-20T10:40:56.513Z,42.16
2018-08-20T10:41:56.517Z,42.65
2018-08-20T10:42:56.517Z,43.02
2018-08-20T10:43:56.522Z,43.12
2018-08-20T10:44:56.526Z,43.71
2018-08-20T10:45:56.526Z,43.73
2018-08-20T10:46:56.532Z,43.12
2018-08-20T10:47:56.542Z,43.32
2018-08-20T10:48:56.542Z,43.71
2018-08-20T10:49:56.591Z,44.78
2018-08-20T10:50:56.545Z,44.19
2018-08-20T10:51:56.549Z,44.78
2018-08-20T10:52:56.549Z,44.38
2018-08-20T10:53:56.553Z,43.33
2018-08-20T10:54:56.563Z,42.85
2018-08-20T10:55:56.561Z,42.68
2018-08-20T10:56:56.564Z,42.38
2018-08-20T10:57:56.571Z,41.50
2018-08-20T10:58:56.573Z,41.41
2018-08-20T10:59:56.575Z,42.48
2018-08-20T11:00:56.585Z,42.48
2018-08-20T11:01:56.598Z,42.48
2018-08-20T11:02:56.588Z,42.58
2018-08-20T11:03:56.612Z,42.38
2018-08-20T11:04:56.591Z,42.01
2018-08-20T11:05:56.595Z,41.52
2018-08-20T11:06:56.603Z,41.91
2018-08-20T11:07:56.608Z,41.23
2018-08-20T11:08:56.609Z,40.76
2018-08-20T11:09:56.617Z,41.25
2018-08-20T11:10:56.672Z,41.15
2018-08-20T11:11:56.624Z,40.56
2018-08-20T11:12:56.627Z,41.05
2018-08-20T11:13:56.627Z,40.56
2018-08-20T11:14:56.633Z,39.49
2018-08-20T11:15:56.639Z,39.20
2018-08-20T11:16:56.640Z,39.59
2018-08-20T11:17:56.640Z,40.17
2018-08-20T11:18:56.650Z,40.08
2018-08-20T11:19:56.652Z,40.17
2018-08-20T11:20:56.654Z,39.76
2018-08-20T11:21:56.659Z,40.82
2018-08-20T11:22:56.666Z,41.11
2018-08-20T11:23:56.675Z,41.60
2018-08-20T11:24:56.671Z,41.11
2018-08-20T11:25:56.676Z,41.31
2018-08-20T11:26:56.705Z,40.72
2018-08-20T11:27:56.686Z,40.04
2018-08-20T11:28:56.689Z,39.75
2018-08-20T11:29:56.696Z,39.84
2018-08-20T11:30:56.698Z,40.23
2018-08-20T11:31:56.700Z,39.94
2018-08-20T11:32:56.702Z,39.76
2018-08-20T11:33:56.715Z,40.25
2018-08-20T11:34:56.713Z,40.55
2018-08-20T11:35:56.720Z,40.64
2018-08-20T11:36:56.722Z,39.98
2018-08-20T11:37:56.727Z,40.17
2018-08-20T11:38:56.730Z,40.17
2018-08-20T11:39:56.734Z,38.81
2018-08-20T11:40:56.740Z,39.59
2018-08-20T11:41:56.741Z,39.29
2018-08-20T11:42:56.749Z,39.39
2018-08-20T11:43:56.747Z,39.22
2018-08-20T11:44:56.755Z,39.12
2018-08-20T11:45:56.759Z,38.43
2018-08-20T11:46:56.759Z,39.12
2018-08-20T11:47:56.769Z,38.73
2018-08-20T11:48:56.796Z,39.12
2018-08-20T11:49:56.770Z,38.16
2018-08-20T11:50:56.774Z,37.47
2018-08-20T11:51:56.786Z,37.85
2018-08-20T11:52:56.790Z,38.43
2018-08-20T11:53:56.789Z,38.63
2018-08-20T11:54:56.796Z,37.96
2018-08-20T11:55:56.795Z,38.16
2018-08-20T11:56:56.803Z,38.26
2018-08-20T11:57:56.804Z,38.45
2018-08-20T11:58:56.815Z,37.06
2018-08-20T11:59:56.815Z,36.96
2018-08-20T12:00:56.822Z,37.67
2018-08-20T12:01:56.831Z,37.67
2018-08-20T12:02:56.835Z,37.27
2018-08-20T12:03:56.841Z,36.59
2018-08-20T12:04:56.839Z,36.98
2018-08-20T12:05:56.845Z,37.19
2018-08-20T12:06:56.929Z,36.90
2018-08-20T12:07:56.855Z,36.80
2018-08-20T12:08:56.858Z,36.02
2018-08-20T12:09:56.862Z,36.80
2018-08-20T12:10:56.866Z,36.41
2018-08-20T12:11:56.877Z,36.33
2018-08-20T12:12:56.872Z,35.45
2018-08-20T12:13:56.877Z,35.25
2018-08-20T12:14:56.886Z,34.86
2018-08-20T12:15:56.887Z,34.38
2018-08-20T12:16:56.898Z,35.45
2018-08-20T12:17:56.900Z,35.55
2018-08-20T12:18:56.905Z,34.47
2018-08-20T12:19:56.911Z,34.96
2018-08-20T12:20:56.906Z,34.96
2018-08-20T12:21:56.917Z,35.25
2018-08-20T12:22:56.918Z,34.86
2018-08-20T12:23:56.929Z,34.28
2018-08-20T12:24:56.948Z,34.08
2018-08-20T12:25:56.932Z,34.86
2018-08-20T12:26:56.944Z,35.47
2018-08-20T12:27:56.946Z,35.37
2018-08-20T12:28:56.948Z,34.86
2018-08-20T12:29:56.957Z,35.34
2018-08-20T12:30:56.990Z,36.02
2018-08-20T12:31:56.963Z,35.81
2018-08-20T12:32:56.969Z,36.87
2018-08-20T12:33:56.975Z,36.96
2018-08-20T12:34:56.982Z,37.35
2018-08-20T12:35:56.981Z,36.77
2018-08-20T12:36:56.985Z,37.95
2018-08-20T12:37:56.989Z,36.88
2018-08-20T12:38:56.995Z,37.08
2018-08-20T12:39:57.048Z,37.18
2018-08-20T12:40:57.005Z,36.69
2018-08-20T12:41:57.012Z,35.34
2018-08-20T12:42:57.017Z,35.91
2018-08-20T12:43:57.025Z,36.90
2018-08-20T12:44:57.022Z,36.32
2018-08-20T12:45:57.029Z,35.93
2018-08-20T12:46:57.035Z,35.24
2018-08-20T12:47:57.045Z,35.16
2018-08-20T12:48:57.041Z,34.18
2018-08-20T12:49:57.052Z,34.18
2018-08-20T12:50:57.051Z,33.69
2018-08-20T12:51:57.057Z,33.89
2018-08-20T12:52:57.113Z,33.22